PWAK Airport Information

Runway Information
Runway 10 Length 9843 ft width 150 ft
Elevation 14 ft Threshold 0 ft Heading 95
Runway 28 Length 9843 ft Width 150 ft
Elevation 12 ft Threshold 0 ft Heading 275
Airport Frequencies
Type A/G Name OPS AAS Frequency 128 MHZ
Type RDO Name OAKLAND OC Frequency 884.3 MHZ
Airport Navaids
Type VORTAC Name Wake Island Frequency 113500 KHZ
Airport Weather Information & NOTAM
ADDS - METARS form results

(0217 UTC 22 January 2019)
Data provider http://aviationweather.gov/metar/data/
 
Forecast for: PWAK (WAKE ISLAND AIRF, UM, US)
Text: TAF PWAK 212200Z 2122/2304 06006KT 9999 BKN040 QNH2991INS TX24/2123Z TN23/2217Z LIMITED METWATCH 2122 TIL 2206
Forecast period: 2200 UTC 21 January 2019 to 0400 UTC 23 January 2019
Forecast type: FROM: standard forecast or significant change
Winds: from the ENE (60 degrees) at 7 MPH (6 knots; 3.1 m/s)
Visibility: 6 or more miles 10+ km)
Ceiling: 4000 feet AGL
Clouds: broken clouds at 4000 feet AGL
Weather: no significant weather forecast for this period